createdAt,value
2022-08-30T00:02:43.754Z,12.38
2022-08-30T00:05:45.795Z,12.90
2022-08-30T00:08:51.670Z,12.07
2022-08-30T00:11:52.772Z,12.70
2022-08-30T00:14:54.319Z,12.40
2022-08-30T00:17:56.007Z,13.00
2022-08-30T00:20:57.216Z,12.82
2022-08-30T00:23:58.558Z,13.20
2022-08-30T00:26:59.289Z,12.50
2022-08-30T00:30:00.535Z,12.80
2022-08-30T00:33:01.948Z,12.23
2022-08-30T00:36:03.715Z,12.38
2022-08-30T00:39:06.524Z,13.02
2022-08-30T00:42:09.656Z,12.90
2022-08-30T00:45:26.868Z,13.20
2022-08-30T00:48:28.122Z,12.20
2022-08-30T00:51:29.424Z,12.50
2022-08-30T00:54:33.482Z,13.13
2022-08-30T00:57:35.991Z,12.35
2022-08-30T01:00:37.501Z,12.95
2022-08-30T01:03:40.841Z,12.77
2022-08-30T01:06:42.212Z,13.48
2022-08-30T01:09:43.751Z,13.23
2022-08-30T01:12:47.477Z,13.00
2022-08-30T01:15:50.816Z,13.77
2022-08-30T01:18:56.512Z,13.82
2022-08-30T01:22:26.017Z,12.90
2022-08-30T01:25:31.382Z,12.98
2022-08-30T01:28:34.656Z,12.00
2022-08-30T01:31:37.213Z,12.02
2022-08-30T01:34:38.291Z,14.23
2022-08-30T01:37:39.895Z,13.65
2022-08-30T01:40:41.238Z,14.57
2022-08-30T01:43:42.987Z,13.45
2022-08-30T01:46:47.874Z,13.80
2022-08-30T01:49:49.037Z,14.13
2022-08-30T01:52:49.988Z,16.45
2022-08-30T01:55:51.092Z,16.77
2022-08-30T01:58:53.475Z,16.65
2022-08-30T02:01:55.191Z,17.05
2022-08-30T02:04:58.511Z,16.08
2022-08-30T02:08:00.667Z,14.82
2022-08-30T02:11:02.600Z,15.50
2022-08-30T02:14:04.112Z,16.27
2022-08-30T02:17:09.717Z,17.08
2022-08-30T02:20:11.512Z,16.73
2022-08-30T02:23:12.987Z,14.38
2022-08-30T02:26:14.839Z,14.75
2022-08-30T02:29:16.029Z,15.95
2022-08-30T02:32:17.488Z,15.23
2022-08-30T02:35:18.907Z,15.43
2022-08-30T02:38:20.333Z,14.35
2022-08-30T02:41:23.742Z,16.33
2022-08-30T02:44:24.673Z,15.70
2022-08-30T02:47:25.677Z,16.75
2022-08-30T02:50:26.820Z,17.25
2022-08-30T02:53:27.888Z,17.65
2022-08-30T02:56:29.121Z,17.05
2022-08-30T02:59:30.675Z,17.80
2022-08-30T03:02:31.758Z,17.40
2022-08-30T03:05:33.544Z,16.58
2022-08-30T03:08:34.810Z,18.25
2022-08-30T03:11:36.103Z,18.48
2022-08-30T03:14:39.332Z,18.40
2022-08-30T03:17:41.876Z,16.77
2022-08-30T03:20:43.984Z,16.50
2022-08-30T03:23:55.476Z,15.75
2022-08-30T03:26:56.197Z,16.20
2022-08-30T03:29:57.519Z,16.17
2022-08-30T03:32:59.118Z,15.52
2022-08-30T03:36:00.101Z,16.75
2022-08-30T03:39:00.870Z,16.08
2022-08-30T03:42:01.873Z,15.32
2022-08-30T03:45:05.787Z,15.38
2022-08-30T03:48:07.073Z,17.50
2022-08-30T03:51:07.827Z,16.70
2022-08-30T03:54:09.740Z,17.33
2022-08-30T03:57:13.363Z,16.92
2022-08-30T04:00:21.846Z,16.77
2022-08-30T04:03:26.121Z,17.90
2022-08-30T04:06:27.549Z,16.63
2022-08-30T04:09:28.815Z,16.85
2022-08-30T04:12:29.884Z,16.70
2022-08-30T04:15:31.349Z,16.95
2022-08-30T04:18:32.681Z,15.70
2022-08-30T04:21:33.957Z,15.63
2022-08-30T04:24:43.805Z,16.17
2022-08-30T04:27:46.517Z,17.60
2022-08-30T04:30:47.658Z,16.08
2022-08-30T04:33:49.420Z,16.83
2022-08-30T04:36:50.701Z,15.98
2022-08-30T04:39:56.103Z,15.30
2022-08-30T04:42:57.475Z,17.70
2022-08-30T04:45:59.713Z,15.65
2022-08-30T04:49:01.056Z,15.82
2022-08-30T04:52:02.031Z,15.35
2022-08-30T04:55:03.963Z,15.68
2022-08-30T04:58:06.066Z,15.18
2022-08-30T05:01:19.923Z,15.48
2022-08-30T05:04:21.189Z,15.65
2022-08-30T05:07:22.451Z,15.40
2022-08-30T05:10:24.338Z,15.18
2022-08-30T05:13:35.226Z,16.40
2022-08-30T05:16:38.341Z,16.13
2022-08-30T05:19:39.455Z,15.63
2022-08-30T05:22:53.759Z,15.23
2022-08-30T05:25:55.164Z,15.57
2022-08-30T05:28:56.858Z,15.35
2022-08-30T05:31:57.932Z,14.07
2022-08-30T05:34:58.910Z,14.85
2022-08-30T05:38:00.318Z,14.93
2022-08-30T05:41:05.161Z,14.88
2022-08-30T05:47:11.438Z,13.88
2022-08-30T05:50:12.913Z,14.10
2022-08-30T05:53:13.618Z,14.63
2022-08-30T05:56:19.562Z,14.13
2022-08-30T05:59:20.412Z,14.35
2022-08-30T06:02:21.655Z,14.27
2022-08-30T06:05:23.089Z,13.85
2022-08-30T06:08:24.411Z,13.10
2022-08-30T06:11:26.743Z,13.05
2022-08-30T06:14:27.980Z,11.98
2022-08-30T06:17:29.183Z,13.30
2022-08-30T06:20:30.124Z,12.65
2022-08-30T06:23:31.104Z,12.18
2022-08-30T06:29:54.326Z,12.50
2022-08-30T06:32:55.491Z,12.90
2022-08-30T06:36:05.733Z,12.40
2022-08-30T06:39:08.422Z,12.98
2022-08-30T06:42:09.542Z,13.13
2022-08-30T06:45:11.357Z,12.38
2022-08-30T06:48:12.782Z,12.15
2022-08-30T06:51:13.843Z,13.35
2022-08-30T06:54:15.074Z,12.43
2022-08-30T06:57:16.845Z,11.90
2022-08-30T07:00:18.341Z,11.05
2022-08-30T07:03:19.502Z,11.43
2022-08-30T07:06:21.734Z,11.68
2022-08-30T07:09:23.362Z,12.20
2022-08-30T07:12:24.591Z,11.77
2022-08-30T07:15:25.921Z,11.85
2022-08-30T07:18:45.153Z,11.63
2022-08-30T07:21:45.939Z,11.40
2022-08-30T07:24:48.275Z,11.80
2022-08-30T07:27:51.985Z,11.70
2022-08-30T07:30:53.040Z,11.07
2022-08-30T07:33:54.354Z,12.07
2022-08-30T07:36:55.231Z,11.82
2022-08-30T07:39:56.020Z,11.38
2022-08-30T07:42:57.403Z,11.25
2022-08-30T07:46:08.200Z,12.05
2022-08-30T07:49:11.564Z,11.75
2022-08-30T07:52:12.816Z,12.50
2022-08-30T07:55:13.799Z,11.15
2022-08-30T07:58:15.255Z,11.50
2022-08-30T08:01:18.548Z,11.88
2022-08-30T08:04:19.772Z,11.90
2022-08-30T08:07:20.980Z,12.43
2022-08-30T08:10:21.868Z,13.10
2022-08-30T08:13:23.718Z,12.68
2022-08-30T08:16:33.045Z,12.80
2022-08-30T08:19:33.967Z,11.90
2022-08-30T08:22:39.746Z,12.70
2022-08-30T08:25:41.802Z,12.27
2022-08-30T08:28:45.155Z,12.02
2022-08-30T08:31:47.262Z,11.73
2022-08-30T08:34:48.319Z,12.30
2022-08-30T08:37:49.519Z,12.13
2022-08-30T08:41:20.774Z,12.90
2022-08-30T08:45:07.467Z,12.70
2022-08-30T08:48:32.023Z,13.43
2022-08-30T08:52:05.801Z,12.93
2022-08-30T08:55:20.720Z,10.85
2022-08-30T08:58:27.625Z,12.20
2022-08-30T09:01:31.706Z,11.35
2022-08-30T09:04:39.547Z,10.90
2022-08-30T09:07:45.951Z,10.75
2022-08-30T09:10:57.139Z,9.95
2022-08-30T09:13:59.350Z,9.43
2022-08-30T09:17:15.504Z,8.43
2022-08-30T09:20:41.395Z,8.73
2022-08-30T09:23:56.295Z,8.00
2022-08-30T09:26:57.496Z,9.38
2022-08-30T09:33:32.740Z,8.68
2022-08-30T09:36:53.166Z,8.38
2022-08-30T09:39:55.158Z,8.38
2022-08-30T09:43:12.009Z,8.85
2022-08-30T09:46:16.394Z,8.43
2022-08-30T09:49:41.553Z,8.25
2022-08-30T09:53:15.232Z,7.55
2022-08-30T09:56:54.557Z,7.63
2022-08-30T10:00:05.522Z,7.22
2022-08-30T10:03:43.940Z,7.40
2022-08-30T10:07:06.791Z,6.80
2022-08-30T10:10:30.556Z,7.35
2022-08-30T10:14:00.283Z,6.93
2022-08-30T10:17:33.576Z,7.82
2022-08-30T10:21:02.814Z,6.90
2022-08-30T10:27:49.106Z,7.18
2022-08-30T10:31:29.416Z,6.88
2022-08-30T10:34:42.816Z,7.75
2022-08-30T10:37:54.090Z,7.53
2022-08-30T10:41:13.672Z,8.43
2022-08-30T10:44:37.661Z,6.85
2022-08-30T10:47:56.785Z,6.80
2022-08-30T10:51:20.540Z,6.50
2022-08-30T10:54:48.716Z,6.43
2022-08-30T10:57:51.350Z,6.43
2022-08-30T11:01:30.340Z,6.68
2022-08-30T11:04:55.116Z,6.78
2022-08-30T11:08:49.653Z,7.00
2022-08-30T11:12:25.364Z,7.45
2022-08-30T11:15:34.604Z,6.88
2022-08-30T11:22:33.320Z,8.13
2022-08-30T11:26:01.904Z,8.32
2022-08-30T11:29:07.422Z,12.30
2022-08-30T11:32:17.349Z,11.63
2022-08-30T11:35:37.744Z,8.40
2022-08-30T11:38:39.112Z,8.77
2022-08-30T11:41:47.747Z,9.40
2022-08-30T11:44:48.934Z,8.80
2022-08-30T11:48:10.203Z,9.05
2022-08-30T11:51:44.377Z,9.45
2022-08-30T11:55:03.938Z,8.18
2022-08-30T11:58:44.235Z,8.23
2022-08-30T12:01:51.152Z,8.48
2022-08-30T12:04:56.361Z,8.90
2022-08-30T12:08:02.750Z,10.35
2022-08-30T12:11:11.636Z,10.55
2022-08-30T12:14:49.214Z,8.15
2022-08-30T12:18:17.290Z,6.97
2022-08-30T12:21:21.472Z,7.40
2022-08-30T12:24:41.129Z,7.07
2022-08-30T12:27:42.099Z,7.00
2022-08-30T12:30:46.733Z,7.10
2022-08-30T12:34:03.415Z,6.80
2022-08-30T12:37:10.901Z,11.57
2022-08-30T12:40:21.093Z,10.88
2022-08-30T12:43:52.501Z,7.63
2022-08-30T12:47:02.967Z,7.30
2022-08-30T12:50:07.306Z,7.70
2022-08-30T12:53:14.605Z,8.98
2022-08-30T12:56:35.098Z,8.55
2022-08-30T12:59:59.845Z,7.72
2022-08-30T13:03:24.231Z,7.43
2022-08-30T13:06:37.814Z,8.13
2022-08-30T13:09:43.291Z,11.50
2022-08-30T13:13:06.131Z,10.10
2022-08-30T13:16:18.921Z,7.47
2022-08-30T13:19:41.404Z,7.18
2022-08-30T13:23:05.921Z,6.53
2022-08-30T13:26:08.559Z,7.07
2022-08-30T13:29:20.755Z,7.18
2022-08-30T13:32:23.301Z,7.40
2022-08-30T13:35:24.543Z,7.50
2022-08-30T13:38:25.511Z,7.32
2022-08-30T13:41:26.836Z,7.68
2022-08-30T13:44:35.730Z,7.97
2022-08-30T13:47:37.375Z,7.80
2022-08-30T13:50:38.975Z,7.72
2022-08-30T13:53:56.921Z,8.05
2022-08-30T13:56:59.012Z,7.95
2022-08-30T14:00:00.039Z,7.65
2022-08-30T14:03:01.703Z,6.97
2022-08-30T14:06:29.558Z,7.85
2022-08-30T14:09:25.134Z,6.78
2022-08-30T14:15:48.565Z,7.13
2022-08-30T14:18:50.836Z,6.78
2022-08-30T14:21:51.998Z,6.68
2022-08-30T14:24:54.372Z,7.13
2022-08-30T14:27:57.088Z,6.68
2022-08-30T14:30:58.356Z,6.65
2022-08-30T14:34:00.251Z,6.22
2022-08-30T14:37:01.026Z,6.57
2022-08-30T14:40:02.341Z,6.40
2022-08-30T14:43:04.206Z,7.00
2022-08-30T14:46:05.450Z,6.82
2022-08-30T14:49:06.663Z,6.60
2022-08-30T14:52:08.975Z,6.85
2022-08-30T14:55:12.700Z,7.00
2022-08-30T14:58:18.132Z,6.53
2022-08-30T15:01:20.792Z,6.13
2022-08-30T15:04:22.365Z,7.15
2022-08-30T15:07:23.612Z,6.53
2022-08-30T15:10:25.276Z,7.03
2022-08-30T15:13:26.611Z,7.75
2022-08-30T15:16:33.115Z,6.90
2022-08-30T15:19:35.962Z,8.55
2022-08-30T15:22:40.234Z,10.45
2022-08-30T15:25:43.648Z,9.95
2022-08-30T15:28:45.224Z,8.60
2022-08-30T15:31:49.861Z,9.93
2022-08-30T15:34:55.698Z,9.60
2022-08-30T15:37:57.313Z,9.48
2022-08-30T15:41:03.687Z,7.05
2022-08-30T15:44:07.340Z,7.70
2022-08-30T15:47:08.573Z,7.25
2022-08-30T15:50:10.232Z,7.90
2022-08-30T15:53:10.996Z,8.55
2022-08-30T15:56:12.727Z,8.85
2022-08-30T15:59:18.816Z,7.32
2022-08-30T16:02:19.675Z,7.30
2022-08-30T16:05:23.840Z,6.43
2022-08-30T16:08:27.142Z,8.13
2022-08-30T16:11:28.345Z,8.13
2022-08-30T16:14:29.817Z,6.70
2022-08-30T16:17:30.908Z,6.85
2022-08-30T16:20:31.885Z,7.80
2022-08-30T16:23:34.296Z,9.85
2022-08-30T16:26:37.208Z,9.30
2022-08-30T16:29:38.166Z,7.57
2022-08-30T16:32:40.019Z,6.63
2022-08-30T16:35:41.869Z,6.80
2022-08-30T16:38:44.064Z,6.47
2022-08-30T16:41:46.598Z,6.53
2022-08-30T16:44:47.288Z,6.47
2022-08-30T16:47:50.664Z,6.50
2022-08-30T16:50:53.028Z,6.47
2022-08-30T16:54:00.699Z,6.68
2022-08-30T16:57:01.960Z,5.50
2022-08-30T17:00:06.492Z,6.90
2022-08-30T17:03:15.687Z,6.32
2022-08-30T17:06:18.094Z,6.63
2022-08-30T17:09:22.319Z,7.45
2022-08-30T17:12:23.929Z,6.78
2022-08-30T17:15:27.185Z,7.10
2022-08-30T17:18:29.970Z,6.65
2022-08-30T17:21:32.370Z,6.50
2022-08-30T17:24:33.606Z,6.45
2022-08-30T17:27:36.538Z,6.75
2022-08-30T17:30:37.807Z,5.90
2022-08-30T17:33:40.704Z,6.68
2022-08-30T17:36:42.070Z,6.90
2022-08-30T17:39:44.322Z,6.07
2022-08-30T17:42:45.973Z,6.10
2022-08-30T17:45:48.473Z,6.68
2022-08-30T17:48:57.568Z,6.28
2022-08-30T17:52:00.572Z,6.53
2022-08-30T17:55:02.044Z,6.03
2022-08-30T17:58:03.442Z,6.07
2022-08-30T18:01:14.685Z,6.65
2022-08-30T18:04:19.410Z,6.78
2022-08-30T18:07:21.374Z,6.85
2022-08-30T18:10:26.769Z,6.25
2022-08-30T18:13:35.925Z,6.40
2022-08-30T18:16:38.431Z,6.55
2022-08-30T18:19:48.573Z,7.13
2022-08-30T18:22:49.566Z,6.57
2022-08-30T18:26:02.085Z,6.43
2022-08-30T18:29:04.432Z,5.70
2022-08-30T18:32:06.096Z,6.10
2022-08-30T18:35:10.576Z,6.20
2022-08-30T18:38:11.709Z,6.15
2022-08-30T18:41:15.081Z,6.00
2022-08-30T18:44:27.684Z,5.63
2022-08-30T18:47:30.560Z,5.40
2022-08-30T18:50:33.578Z,5.80
2022-08-30T18:53:35.558Z,6.30
2022-08-30T18:56:39.192Z,5.70
2022-08-30T18:59:41.997Z,6.20
2022-08-30T19:02:48.119Z,5.68
2022-08-30T19:05:49.555Z,5.78
2022-08-30T19:08:51.004Z,5.88
2022-08-30T19:11:52.371Z,6.60
2022-08-30T19:14:53.498Z,6.18
2022-08-30T19:17:55.256Z,6.32
2022-08-30T19:20:57.494Z,5.95
2022-08-30T19:23:58.282Z,5.95
2022-08-30T19:27:00.130Z,6.45
2022-08-30T19:30:02.460Z,6.20
2022-08-30T19:33:06.482Z,5.90
2022-08-30T19:36:08.070Z,6.35
2022-08-30T19:39:10.224Z,6.18
2022-08-30T19:42:11.640Z,6.80
2022-08-30T19:45:15.536Z,6.50
2022-08-30T19:48:17.032Z,6.78
2022-08-30T19:51:19.501Z,6.07
2022-08-30T19:54:23.183Z,6.20
2022-08-30T19:57:25.555Z,7.03
2022-08-30T20:00:27.462Z,6.30
2022-08-30T20:03:32.271Z,7.57
2022-08-30T20:06:34.402Z,6.40
2022-08-30T20:09:35.835Z,6.95
2022-08-30T20:12:39.925Z,6.78
2022-08-30T20:15:55.610Z,7.70
2022-08-30T20:18:57.561Z,8.40
2022-08-30T20:21:59.093Z,9.10
2022-08-30T20:25:10.917Z,8.88
2022-08-30T20:28:12.264Z,8.60
2022-08-30T20:31:13.526Z,7.72
2022-08-30T20:34:14.374Z,7.15
2022-08-30T20:37:15.623Z,7.60
2022-08-30T20:40:17.356Z,7.65
2022-08-30T20:43:21.235Z,7.15
2022-08-30T20:46:22.012Z,6.50
2022-08-30T20:49:23.746Z,6.00
2022-08-30T20:52:24.792Z,4.97
2022-08-30T20:55:26.180Z,4.22
2022-08-30T20:58:27.133Z,4.72
2022-08-30T21:01:30.026Z,4.18
2022-08-30T21:04:31.904Z,4.05
2022-08-30T21:07:32.822Z,5.18
2022-08-30T21:10:34.224Z,3.40
2022-08-30T21:13:37.155Z,4.22
2022-08-30T21:16:38.300Z,4.70
2022-08-30T21:19:43.669Z,4.50
2022-08-30T21:22:45.006Z,4.32
2022-08-30T21:25:45.757Z,4.28
2022-08-30T21:28:51.943Z,5.13
2022-08-30T21:31:52.987Z,5.73
2022-08-30T21:35:12.203Z,4.78
2022-08-30T21:38:13.487Z,4.70
2022-08-30T21:41:15.184Z,4.88
2022-08-30T21:44:24.953Z,5.07
2022-08-30T21:47:25.647Z,3.90
2022-08-30T21:50:26.308Z,4.65
2022-08-30T21:53:27.630Z,4.25
2022-08-30T21:56:29.382Z,6.03
2022-08-30T21:59:30.820Z,4.65
2022-08-30T22:02:33.465Z,5.00
2022-08-30T22:05:34.458Z,4.45
2022-08-30T22:08:35.489Z,4.50
2022-08-30T22:11:37.492Z,4.53
2022-08-30T22:14:38.830Z,4.22
2022-08-30T22:17:39.688Z,8.23
2022-08-30T22:20:40.660Z,4.50
2022-08-30T22:23:45.159Z,3.85
2022-08-30T22:26:47.605Z,5.13
2022-08-30T22:29:48.649Z,5.53
2022-08-30T22:32:50.405Z,4.78
2022-08-30T22:35:54.552Z,4.70
2022-08-30T22:38:58.866Z,4.75
2022-08-30T22:42:00.034Z,4.72
2022-08-30T22:45:00.853Z,5.05
2022-08-30T22:48:01.622Z,4.32
2022-08-30T22:51:03.388Z,4.40
2022-08-30T22:54:07.299Z,4.90
2022-08-30T22:57:08.215Z,5.25
2022-08-30T23:00:16.348Z,5.10
2022-08-30T23:03:21.798Z,4.32
2022-08-30T23:06:23.893Z,5.10
2022-08-30T23:09:24.750Z,4.80
2022-08-30T23:12:29.379Z,5.25
2022-08-30T23:15:30.525Z,4.72
2022-08-30T23:18:32.538Z,8.05
2022-08-30T23:21:33.605Z,5.18
2022-08-30T23:24:53.242Z,4.50
2022-08-30T23:28:19.093Z,4.90
2022-08-30T23:31:40.186Z,4.97
2022-08-30T23:35:00.406Z,5.38
2022-08-30T23:38:24.485Z,5.35
2022-08-30T23:41:43.722Z,5.25
2022-08-30T23:45:03.271Z,5.72
2022-08-30T23:48:22.917Z,5.85
2022-08-30T23:51:42.019Z,5.40
2022-08-30T23:55:01.829Z,5.60
2022-08-30T23:58:21.876Z,5.85
